Time;durP1;ratioP1;P1;durP2;ratioP2;P2;SDS_P1;SDS_P2;PMS_P1;PMS_P2;Temp;Humidity;BMP_temperature;BMP_pressure;BME280_temperature;BME280_humidity;BME280_pressure;Samples;Min_cycle;Max_cycle;Signal;HPM_P1;HPM_P2
2023/08/24 00:01:12;;;;;;;11.50;7.97;;;16.90;99.90;;;;;;5096549;28;20204;-76
2023/08/24 00:03:38;;;;;;;11.95;7.72;;;17.00;99.90;;;;;;5097313;28;20169;-76
2023/08/24 00:06:04;;;;;;;9.30;7.30;;;17.10;99.90;;;;;;5097952;28;20177;-76
2023/08/24 00:08:30;;;;;;;9.23;7.22;;;17.10;99.90;;;;;;5096266;28;20237;-76
2023/08/24 00:10:55;;;;;;;8.05;7.20;;;17.00;99.90;;;;;;5097888;28;20201;-76
2023/08/24 00:13:21;;;;;;;10.88;7.15;;;17.00;99.90;;;;;;5096069;28;20180;-76
2023/08/24 00:15:47;;;;;;;9.30;7.93;;;17.00;99.90;;;;;;5096205;28;20169;-76
2023/08/24 00:18:13;;;;;;;13.07;7.32;;;17.10;99.90;;;;;;5096076;28;20201;-76
2023/08/24 00:20:39;;;;;;;10.18;7.68;;;17.10;99.90;;;;;;5096803;28;20284;-76
2023/08/24 00:23:04;;;;;;;12.82;7.60;;;17.00;99.90;;;;;;5095887;28;20201;-76
2023/08/24 00:25:31;;;;;;;8.88;7.18;;;17.00;99.90;;;;;;5095869;28;20499;-76
2023/08/24 00:27:56;;;;;;;11.50;7.80;;;17.10;99.90;;;;;;5096070;28;20249;-76
2023/08/24 00:30:23;;;;;;;11.13;8.57;;;17.10;99.90;;;;;;5097003;28;20177;-76
2023/08/24 00:32:50;;;;;;;12.00;9.63;;;17.00;99.90;;;;;;5095620;28;20204;-76
2023/08/24 00:35:16;;;;;;;14.85;9.07;;;16.80;99.90;;;;;;5095457;28;20177;-76
2023/08/24 00:37:42;;;;;;;12.65;9.27;;;16.90;99.90;;;;;;5095745;28;20177;-76
2023/08/24 00:40:10;;;;;;;15.50;9.25;;;16.80;99.90;;;;;;5095380;28;20181;-76
2023/08/24 00:42:41;;;;;;;13.57;9.32;;;16.80;99.90;;;;;;5095305;28;20218;-76
2023/08/24 00:45:09;;;;;;;13.50;9.57;;;16.70;99.90;;;;;;5095578;28;20196;-76
2023/08/24 00:47:46;;;;;;;9.68;8.68;;;16.70;99.90;;;;;;5095446;28;20633;-76
2023/08/24 00:50:12;;;;;;;12.13;8.30;;;16.70;99.90;;;;;;5096219;28;20188;-76
2023/08/24 00:52:40;;;;;;;15.63;10.43;;;16.80;99.90;;;;;;5095128;28;20590;-76
2023/08/24 00:55:07;;;;;;;14.48;11.25;;;16.60;99.90;;;;;;5095090;28;20169;-76
2023/08/24 00:57:35;;;;;;;16.02;10.65;;;16.50;99.90;;;;;;5096139;28;20204;-76
2023/08/24 01:00:05;;;;;;;14.00;10.80;;;16.50;99.90;;;;;;5095020;28;20178;-76
2023/08/24 01:02:31;;;;;;;18.05;10.65;;;16.50;99.90;;;;;;5096103;28;20193;-76
2023/08/24 01:04:59;;;;;;;15.38;12.13;;;16.60;99.90;;;;;;5094437;28;20173;-76
2023/08/24 01:07:25;;;;;;;13.38;11.60;;;16.50;99.90;;;;;;5094687;28;20226;-76
2023/08/24 01:09:52;;;;;;;14.32;11.85;;;16.50;99.90;;;;;;5094546;28;20533;-76
2023/08/24 01:12:39;;;;;;;16.27;11.73;;;16.50;99.90;;;;;;5095879;28;20200;-76
2023/08/24 01:15:19;;;;;;;16.98;10.80;;;16.50;99.90;;;;;;5094852;28;20268;-76
2023/08/24 01:17:47;;;;;;;13.27;11.32;;;16.50;99.90;;;;;;5095938;28;20161;-76
2023/08/24 01:20:15;;;;;;;15.32;10.98;;;16.50;99.90;;;;;;5094280;28;20258;-76
2023/08/24 01:22:55;;;;;;;13.43;10.30;;;16.50;99.90;;;;;;5094668;28;20649;-76
2023/08/24 01:25:42;;;;;;;13.75;10.40;;;16.40;99.90;;;;;;5095984;28;20534;-76
2023/08/24 01:28:09;;;;;;;14.43;10.60;;;16.40;99.90;;;;;;5094549;28;20176;-76
2023/08/24 01:30:35;;;;;;;18.42;12.82;;;16.50;99.90;;;;;;5095731;28;20204;-76
2023/08/24 01:33:04;;;;;;;15.27;12.40;;;16.50;99.90;;;;;;5094243;28;20267;-76
2023/08/24 01:35:31;;;;;;;15.68;12.45;;;16.40;99.90;;;;;;5095536;28;20559;-76
2023/08/24 01:38:02;;;;;;;17.08;12.38;;;16.40;99.90;;;;;;5094165;28;20232;-76
2023/08/24 01:40:39;;;;;;;13.13;10.23;;;16.40;99.90;;;;;;5095548;28;20173;-76
2023/08/24 01:43:09;;;;;;;15.50;8.73;;;16.30;99.90;;;;;;5094387;28;20172;-76
2023/08/24 01:45:35;;;;;;;9.18;8.23;;;16.30;99.90;;;;;;5095338;28;20156;-76
2023/08/24 01:48:03;;;;;;;11.27;9.02;;;16.20;99.90;;;;;;5095543;28;20248;-76
2023/08/24 01:50:31;;;;;;;9.95;8.43;;;16.20;99.90;;;;;;5093361;28;20257;-76
2023/08/24 01:52:57;;;;;;;11.05;8.60;;;16.10;99.90;;;;;;5095253;28;20173;-76
2023/08/24 01:55:23;;;;;;;11.10;9.20;;;16.10;99.90;;;;;;5094965;28;20173;-76
2023/08/24 01:57:49;;;;;;;11.05;8.50;;;16.00;99.90;;;;;;5095235;28;20242;-76
2023/08/24 02:00:15;;;;;;;12.27;9.77;;;16.00;99.90;;;;;;5093666;28;20649;-76
2023/08/24 02:02:44;;;;;;;12.55;10.43;;;15.90;99.90;;;;;;5093864;28;20181;-76
2023/08/24 02:05:10;;;;;;;12.20;9.82;;;15.90;99.90;;;;;;5095075;28;20169;-76
2023/08/24 02:07:38;;;;;;;13.85;10.00;;;15.90;99.90;;;;;;5093865;28;20197;-76
2023/08/24 02:10:04;;;;;;;15.13;10.13;;;15.90;99.90;;;;;;5094066;28;20550;-76
2023/08/24 02:12:30;;;;;;;11.27;9.50;;;16.00;99.90;;;;;;5094763;28;20192;-76
2023/08/24 02:14:55;;;;;;;13.63;10.23;;;15.90;99.90;;;;;;5093565;28;20170;-76
2023/08/24 02:17:21;;;;;;;12.70;10.13;;;15.80;99.90;;;;;;5093433;28;20173;-76
2023/08/24 02:19:47;;;;;;;11.05;9.95;;;15.80;99.90;;;;;;5094362;28;20205;-76
2023/08/24 02:22:13;;;;;;;11.52;9.93;;;15.80;99.90;;;;;;5094420;28;20184;-76
2023/08/24 02:24:39;;;;;;;11.23;10.02;;;15.70;99.90;;;;;;5094963;28;20572;-76
2023/08/24 02:27:05;;;;;;;11.85;10.55;;;15.70;99.90;;;;;;5094509;28;20173;-76
2023/08/24 02:29:30;;;;;;;11.77;9.70;;;15.70;99.90;;;;;;5094735;28;20240;-76
2023/08/24 02:31:56;;;;;;;14.38;9.55;;;15.80;99.90;;;;;;5093146;28;20193;-76
2023/08/24 02:34:22;;;;;;;11.93;8.52;;;15.90;99.90;;;;;;5094336;28;20173;-76
2023/08/24 02:36:48;;;;;;;12.00;10.20;;;15.90;99.90;;;;;;5094435;28;20240;-76
2023/08/24 02:39:14;;;;;;;13.52;10.63;;;15.90;99.90;;;;;;5093330;28;20303;-76
2023/08/24 02:41:39;;;;;;;15.70;12.25;;;15.90;99.90;;;;;;5093014;28;20197;-76
2023/08/24 02:44:05;;;;;;;15.05;12.60;;;15.90;99.90;;;;;;5093220;28;20264;-76
2023/08/24 02:46:31;;;;;;;13.70;12.20;;;15.80;99.90;;;;;;5093198;28;20621;-76
2023/08/24 02:48:57;;;;;;;18.35;12.02;;;15.80;99.90;;;;;;5094469;28;20181;-76
2023/08/24 02:51:23;;;;;;;17.90;11.82;;;15.70;99.90;;;;;;5094299;28;20189;-76
2023/08/24 02:53:50;;;;;;;13.32;11.93;;;15.80;99.90;;;;;;5094699;28;20177;-76
2023/08/24 02:56:15;;;;;;;14.13;12.02;;;15.80;99.90;;;;;;5092911;28;20196;-76
2023/08/24 02:58:41;;;;;;;12.35;11.05;;;15.80;99.90;;;;;;5092735;28;20201;-76
2023/08/24 03:01:07;;;;;;;15.50;11.85;;;15.70;99.90;;;;;;5092162;28;20562;-76
2023/08/24 03:03:35;;;;;;;16.33;11.70;;;15.70;99.90;;;;;;5092782;28;20177;-76
2023/08/24 03:06:03;;;;;;;15.13;11.43;;;15.60;99.90;;;;;;5093898;28;20157;-76
2023/08/24 03:08:30;;;;;;;13.80;11.60;;;15.60;99.90;;;;;;5092549;28;20173;-76
2023/08/24 03:10:56;;;;;;;14.15;11.82;;;15.60;99.90;;;;;;5092798;28;20740;-76
2023/08/24 03:13:22;;;;;;;11.73;9.45;;;15.60;99.90;;;;;;5092951;28;20207;-76
2023/08/24 03:15:47;;;;;;;11.43;9.18;;;15.60;99.90;;;;;;5092646;28;20662;-76
2023/08/24 03:18:16;;;;;;;12.48;9.65;;;15.50;99.90;;;;;;5094042;28;20199;-76
2023/08/24 03:20:42;;;;;;;11.07;9.50;;;15.50;99.90;;;;;;5091302;28;20203;-76
2023/08/24 03:23:07;;;;;;;12.98;10.10;;;15.40;99.90;;;;;;5092583;28;20264;-76
2023/08/24 03:25:38;;;;;;;16.05;10.05;;;15.30;99.90;;;;;;5092557;28;20173;-76
2023/08/24 03:28:04;;;;;;;12.27;10.25;;;15.30;99.90;;;;;;5092686;28;20169;-76
2023/08/24 03:30:30;;;;;;;10.88;9.18;;;15.20;99.90;;;;;;5092522;28;20226;-76
2023/08/24 03:32:56;;;;;;;12.57;10.13;;;15.30;99.90;;;;;;5094407;28;20176;-76
2023/08/24 03:35:22;;;;;;;12.20;10.15;;;15.30;99.90;;;;;;5093688;28;20173;-76
2023/08/24 03:37:48;;;;;;;10.30;9.20;;;15.30;99.90;;;;;;5093986;28;20684;-76
2023/08/24 03:40:14;;;;;;;11.88;9.40;;;15.30;99.90;;;;;;5093812;28;20181;-76
2023/08/24 03:42:40;;;;;;;12.10;9.25;;;15.40;99.90;;;;;;5092681;28;20573;-76
2023/08/24 03:45:06;;;;;;;10.65;9.25;;;15.40;99.90;;;;;;5093269;28;20165;-76
2023/08/24 03:47:32;;;;;;;12.38;9.68;;;15.50;99.90;;;;;;5093529;28;20177;-76
2023/08/24 03:49:57;;;;;;;12.73;9.95;;;15.40;99.90;;;;;;5091997;28;20181;-76
2023/08/24 03:52:23;;;;;;;12.40;8.65;;;15.40;99.90;;;;;;5093507;28;20264;-76
2023/08/24 03:54:49;;;;;;;13.88;9.40;;;15.40;99.90;;;;;;5092163;28;20687;-76
2023/08/24 03:57:15;;;;;;;11.82;8.70;;;15.40;99.90;;;;;;5093190;28;20189;-76
2023/08/24 03:59:41;;;;;;;13.50;10.15;;;15.40;99.90;;;;;;5091837;28;20574;-76
2023/08/24 04:02:07;;;;;;;12.02;9.82;;;15.50;99.90;;;;;;5093350;28;20268;-76
2023/08/24 04:04:33;;;;;;;10.20;9.05;;;15.40;99.90;;;;;;5091606;28;20524;-76
2023/08/24 04:06:59;;;;;;;10.30;9.25;;;15.50;99.90;;;;;;5091997;28;20703;-76
2023/08/24 04:09:25;;;;;;;16.73;13.60;;;15.50;99.90;;;;;;5092149;28;20185;-76
2023/08/24 04:11:51;;;;;;;14.55;12.55;;;15.60;99.90;;;;;;5094104;28;20554;-76
2023/08/24 04:14:17;;;;;;;15.45;11.90;;;15.60;99.90;;;;;;5097622;28;20259;-76
2023/08/24 04:16:43;;;;;;;11.82;10.45;;;15.60;99.90;;;;;;5096185;28;20205;-76
2023/08/24 04:19:08;;;;;;;12.85;11.55;;;15.70;99.90;;;;;;5096387;28;20204;-76
2023/08/24 04:21:35;;;;;;;14.27;12.00;;;15.70;99.90;;;;;;5096855;28;20212;-76
2023/08/24 04:24:01;;;;;;;15.90;13.18;;;15.80;99.90;;;;;;5097016;28;20201;-76
2023/08/24 04:26:26;;;;;;;17.55;14.20;;;15.80;99.90;;;;;;5095625;28;20215;-76
2023/08/24 04:28:52;;;;;;;18.35;13.65;;;15.80;99.90;;;;;;5097306;28;20169;-76
2023/08/24 04:31:18;;;;;;;11.98;10.77;;;15.70;99.90;;;;;;5095924;28;20193;-76
2023/08/24 04:33:43;;;;;;;13.80;10.20;;;15.80;99.90;;;;;;5096141;28;20187;-76
2023/08/24 04:36:09;;;;;;;11.80;10.60;;;15.80;99.90;;;;;;5095737;28;20547;-76
2023/08/24 04:38:35;;;;;;;10.55;9.45;;;15.80;99.90;;;;;;5097338;28;20203;-76
2023/08/24 04:41:01;;;;;;;10.63;9.15;;;15.80;99.90;;;;;;5097745;28;20197;-76
2023/08/24 04:43:27;;;;;;;16.30;9.80;;;15.80;99.90;;;;;;5097272;28;20173;-76
2023/08/24 04:45:54;;;;;;;11.05;9.95;;;15.80;99.90;;;;;;5095539;28;20644;-76
2023/08/24 04:48:25;;;;;;;13.27;10.23;;;15.80;99.90;;;;;;5095520;28;20185;-76
2023/08/24 04:50:53;;;;;;;14.48;9.45;;;15.80;99.90;;;;;;5095888;28;20204;-76
2023/08/24 04:53:19;;;;;;;15.75;10.73;;;15.80;99.90;;;;;;5095438;28;20177;-76
2023/08/24 04:55:46;;;;;;;15.98;11.05;;;15.90;99.90;;;;;;5094799;28;20189;-76
2023/08/24 04:58:16;;;;;;;12.82;10.65;;;15.90;99.90;;;;;;5094710;28;20204;-76
2023/08/24 05:00:42;;;;;;;14.85;11.23;;;15.90;99.90;;;;;;5094767;28;20242;-76
2023/08/24 05:03:08;;;;;;;12.15;10.63;;;15.90;99.90;;;;;;5094866;28;20173;-76
2023/08/24 05:05:35;;;;;;;17.02;13.55;;;15.90;99.90;;;;;;5095872;28;20169;-76
2023/08/24 05:08:02;;;;;;;16.80;14.43;;;15.90;99.90;;;;;;5094770;28;20185;-76
2023/08/24 05:10:32;;;;;;;19.98;14.15;;;15.90;99.90;;;;;;5096067;28;20252;-77
2023/08/24 05:12:58;;;;;;;16.70;14.80;;;15.90;99.90;;;;;;5094757;28;20173;-77
2023/08/24 05:15:24;;;;;;;17.63;14.45;;;15.90;99.90;;;;;;5096092;28;20536;-77
2023/08/24 05:17:52;;;;;;;16.85;14.23;;;16.00;99.90;;;;;;5094574;28;20177;-77
2023/08/24 05:20:18;;;;;;;18.83;14.10;;;16.00;99.90;;;;;;5095640;28;20188;-77
2023/08/24 05:22:44;;;;;;;20.33;14.55;;;16.10;99.90;;;;;;5094717;28;20548;-77
2023/08/24 05:25:10;;;;;;;19.33;15.30;;;16.10;99.90;;;;;;5095198;28;20240;-77
2023/08/24 05:27:35;;;;;;;19.55;14.40;;;16.20;99.90;;;;;;5095763;28;20169;-77
2023/08/24 05:30:01;;;;;;;18.92;14.50;;;16.20;99.90;;;;;;5094573;28;20177;-77
2023/08/24 05:32:27;;;;;;;19.38;14.20;;;16.20;99.90;;;;;;5096235;28;20221;-77
2023/08/24 05:34:52;;;;;;;18.08;14.55;;;16.20;99.90;;;;;;5095580;28;20173;-77
2023/08/24 05:37:18;;;;;;;18.88;16.10;;;16.10;99.90;;;;;;5094351;28;20659;-77
2023/08/24 05:39:44;;;;;;;17.95;16.05;;;16.10;99.90;;;;;;5096244;28;20194;-77
2023/08/24 05:42:10;;;;;;;22.38;15.98;;;16.10;99.90;;;;;;5095047;28;20222;-77
2023/08/24 05:44:35;;;;;;;18.90;15.75;;;16.10;99.90;;;;;;5095448;28;20177;-77
2023/08/24 05:47:01;;;;;;;17.00;15.20;;;16.10;99.90;;;;;;5096799;28;20180;-77
2023/08/24 05:49:28;;;;;;;17.40;15.48;;;16.20;99.90;;;;;;5094401;28;20171;-77
2023/08/24 05:51:54;;;;;;;16.98;15.02;;;16.20;99.90;;;;;;5076591;28;20202;-76
2023/08/24 05:54:19;;;;;;;16.15;14.18;;;16.30;99.90;;;;;;5086207;28;20182;-77
2023/08/24 05:56:46;;;;;;;16.63;13.95;;;16.30;99.90;;;;;;5078359;28;20190;-77
2023/08/24 05:59:14;;;;;;;16.65;13.60;;;16.30;99.90;;;;;;5076231;28;20221;-77
2023/08/24 06:01:41;;;;;;;16.90;13.90;;;16.30;99.90;;;;;;5074639;28;20197;-77
2023/08/24 06:04:10;;;;;;;16.25;13.25;;;16.30;99.90;;;;;;5075196;28;20196;-77
2023/08/24 06:06:36;;;;;;;15.25;13.68;;;16.40;99.90;;;;;;5074278;28;20203;-77
2023/08/24 06:09:06;;;;;;;14.40;12.85;;;16.50;99.90;;;;;;5075575;28;20162;-77
2023/08/24 06:11:33;;;;;;;17.92;12.85;;;16.40;99.90;;;;;;5073405;28;20197;-77
2023/08/24 06:13:58;;;;;;;17.27;13.60;;;16.50;99.90;;;;;;5074635;28;20178;-77
2023/08/24 06:16:24;;;;;;;17.60;13.50;;;16.50;99.90;;;;;;5073710;28;20193;-77
2023/08/24 06:18:50;;;;;;;15.90;12.90;;;16.60;99.90;;;;;;5074802;28;20186;-76
2023/08/24 06:21:17;;;;;;;15.25;13.43;;;16.60;99.90;;;;;;5072885;28;20259;-77
2023/08/24 06:23:44;;;;;;;15.32;13.65;;;16.50;99.90;;;;;;5073352;28;20177;-76
2023/08/24 06:26:09;;;;;;;14.70;13.13;;;16.60;99.90;;;;;;5073136;28;20255;-74
2023/08/24 06:28:35;;;;;;;19.90;13.25;;;16.60;99.90;;;;;;5074645;28;20202;-74
2023/08/24 06:31:01;;;;;;;13.63;12.07;;;16.70;99.90;;;;;;5073021;28;20193;-74
2023/08/24 06:33:31;;;;;;;15.93;13.13;;;16.70;99.90;;;;;;5074689;28;20165;-74
2023/08/24 06:35:57;;;;;;;14.90;12.30;;;16.80;99.90;;;;;;5073674;28;20174;-74
2023/08/24 06:38:23;;;;;;;18.13;13.55;;;16.90;99.90;;;;;;5074149;28;20193;-74
2023/08/24 06:40:49;;;;;;;16.90;13.45;;;16.90;99.90;;;;;;5073392;28;20204;-74
2023/08/24 06:43:14;;;;;;;22.17;14.82;;;16.90;99.90;;;;;;5075402;28;20174;-73
2023/08/24 06:45:41;;;;;;;11.57;10.38;;;17.00;99.90;;;;;;5074983;28;20169;-73
2023/08/24 06:48:07;;;;;;;17.63;13.60;;;17.10;99.90;;;;;;5074990;28;20154;-74
2023/08/24 06:50:33;;;;;;;15.18;12.55;;;17.20;99.90;;;;;;5086366;28;20193;-74
2023/08/24 06:52:59;;;;;;;20.05;13.77;;;17.30;99.90;;;;;;5094754;28;20173;-74
2023/08/24 06:55:27;;;;;;;16.88;13.52;;;17.40;99.90;;;;;;5094325;28;20176;-74
2023/08/24 06:57:53;;;;;;;15.95;13.00;;;17.50;99.90;;;;;;5094562;28;20192;-74
2023/08/24 07:00:19;;;;;;;18.15;13.55;;;17.70;99.90;;;;;;5092823;28;20173;-74
2023/08/24 07:02:47;;;;;;;14.68;12.07;;;17.90;99.90;;;;;;5094061;28;20192;-74
2023/08/24 07:05:13;;;;;;;17.80;12.82;;;18.10;99.90;;;;;;5092857;28;20511;-74
2023/08/24 07:07:38;;;;;;;23.20;12.38;;;18.30;99.90;;;;;;5092734;28;20187;-74
2023/08/24 07:10:06;;;;;;;14.75;11.50;;;18.50;99.90;;;;;;5093428;28;20268;-74
2023/08/24 07:12:32;;;;;;;16.10;10.73;;;18.60;99.90;;;;;;5093795;28;20675;-74
2023/08/24 07:14:57;;;;;;;14.48;10.52;;;18.70;99.90;;;;;;5092504;28;20264;-74
2023/08/24 07:17:23;;;;;;;16.30;11.63;;;18.80;99.90;;;;;;5092743;28;20180;-74
2023/08/24 07:19:49;;;;;;;16.95;11.40;;;18.90;99.90;;;;;;5092113;28;20296;-74
2023/08/24 07:22:15;;;;;;;14.70;10.20;;;19.00;99.90;;;;;;5093704;28;20217;-74
2023/08/24 07:24:41;;;;;;;16.77;9.60;;;19.10;99.90;;;;;;5092461;28;20192;-74
2023/08/24 07:27:08;;;;;;;12.15;8.68;;;19.30;99.90;;;;;;5092448;28;20649;-74
2023/08/24 07:29:34;;;;;;;15.30;7.80;;;19.40;99.90;;;;;;5092459;28;20181;-74
2023/08/24 07:32:00;;;;;;;11.95;6.90;;;19.50;99.90;;;;;;5093543;28;20189;-74
2023/08/24 07:34:26;;;;;;;10.68;7.20;;;19.60;99.90;;;;;;5093771;28;20199;-74
2023/08/24 07:36:52;;;;;;;10.90;6.72;;;19.80;99.90;;;;;;5092075;28;20181;-74
2023/08/24 07:39:18;;;;;;;8.90;6.25;;;19.90;99.90;;;;;;5093688;28;20193;-74
2023/08/24 07:41:45;;;;;;;9.70;6.45;;;20.10;99.90;;;;;;5093306;28;20193;-74
2023/08/24 07:44:11;;;;;;;9.00;5.10;;;20.30;99.90;;;;;;5092219;28;20252;-74
2023/08/24 07:46:38;;;;;;;9.43;6.68;;;20.50;99.90;;;;;;5092649;28;20618;-74
2023/08/24 07:49:04;;;;;;;9.07;5.65;;;20.70;99.90;;;;;;5097362;28;20209;-74
2023/08/24 07:51:29;;;;;;;8.20;5.00;;;20.80;99.90;;;;;;5095823;28;20262;-74
2023/08/24 07:53:55;;;;;;;8.63;5.50;;;20.90;99.90;;;;;;5096161;28;20608;-74
2023/08/24 07:56:22;;;;;;;6.50;4.18;;;20.90;99.90;;;;;;5097158;28;20189;-74
2023/08/24 07:58:48;;;;;;;8.38;6.03;;;21.00;99.90;;;;;;5097181;28;20228;-74
2023/08/24 08:01:14;;;;;;;9.23;5.22;;;21.10;99.90;;;;;;5097192;28;20213;-74
2023/08/24 08:03:39;;;;;;;8.30;4.80;;;21.20;99.90;;;;;;5097148;28;20542;-74
2023/08/24 08:06:05;;;;;;;9.98;5.03;;;21.30;99.90;;;;;;5095740;28;20570;-74
2023/08/24 08:08:31;;;;;;;8.07;4.75;;;21.30;99.90;;;;;;5097041;28;20169;-74
2023/08/24 08:11:01;;;;;;;10.10;5.43;;;21.40;99.90;;;;;;5095617;28;20205;-74
2023/08/24 08:13:30;;;;;;;8.68;5.40;;;21.60;99.90;;;;;;5096949;28;20169;-74
2023/08/24 08:16:07;;;;;;;5.78;4.38;;;21.80;99.90;;;;;;5095574;28;20544;-74
2023/08/24 08:18:34;;;;;;;11.40;5.90;;;21.90;99.90;;;;;;5096680;28;20552;-74
2023/08/24 08:21:00;;;;;;;9.90;5.60;;;22.00;99.90;;;;;;5096676;28;20627;-74
2023/08/24 08:23:26;;;;;;;8.27;6.07;;;22.00;99.90;;;;;;5096782;28;20173;-74
2023/08/24 08:25:51;;;;;;;7.93;5.25;;;22.10;99.90;;;;;;5095331;28;20173;-74
2023/08/24 08:28:18;;;;;;;8.70;5.40;;;22.20;99.90;;;;;;5097049;28;20192;-74
2023/08/24 08:30:48;;;;;;;7.85;5.38;;;22.30;99.90;;;;;;5096548;28;20199;-74
2023/08/24 08:33:14;;;;;;;8.93;4.75;;;22.50;99.90;;;;;;5096525;28;20668;-74
2023/08/24 08:35:40;;;;;;;6.90;4.95;;;22.70;99.90;;;;;;5096202;28;20192;-74
2023/08/24 08:38:07;;;;;;;7.15;4.95;;;22.80;99.90;;;;;;5094921;28;20201;-74
2023/08/24 08:40:37;;;;;;;14.70;5.07;;;23.00;99.90;;;;;;5096272;28;20239;-74
2023/08/24 08:43:03;;;;;;;7.55;4.38;;;23.30;99.90;;;;;;5096248;28;20222;-74
2023/08/24 08:45:29;;;;;;;6.63;4.43;;;23.50;99.90;;;;;;5096254;28;20230;-74
2023/08/24 08:48:00;;;;;;;8.13;4.47;;;23.60;99.90;;;;;;5096210;28;20702;-74
2023/08/24 08:50:26;;;;;;;8.52;4.05;;;23.80;99.90;;;;;;5095854;28;20199;-74
2023/08/24 08:52:52;;;;;;;6.18;4.45;;;23.90;99.90;;;;;;5094876;28;20177;-74
2023/08/24 08:55:19;;;;;;;6.93;4.18;;;24.00;99.90;;;;;;5096026;28;20172;-74
2023/08/24 08:57:49;;;;;;;9.73;4.57;;;24.20;99.90;;;;;;5095665;28;20188;-74
2023/08/24 09:00:16;;;;;;;10.75;4.70;;;24.30;99.90;;;;;;5095230;28;20643;-74
2023/08/24 09:02:46;;;;;;;9.13;4.57;;;24.50;99.90;;;;;;5095925;28;20181;-74
2023/08/24 09:05:13;;;;;;;8.02;4.60;;;24.50;99.90;;;;;;5095716;28;20145;-73
2023/08/24 09:07:42;;;;;;;8.50;4.53;;;24.60;99.90;;;;;;5096043;28;20161;-74
2023/08/24 09:10:08;;;;;;;10.32;4.18;;;24.70;99.90;;;;;;5094724;28;20230;-74
2023/08/24 09:12:34;;;;;;;8.60;4.35;;;24.80;95.70;;;;;;5095874;28;20217;-74
2023/08/24 09:15:04;;;;;;;5.75;4.22;;;25.00;99.90;;;;;;5095988;28;20183;-74
2023/08/24 09:17:29;;;;;;;11.75;4.22;;;25.10;99.90;;;;;;5096084;28;20540;-74
2023/08/24 09:19:59;;;;;;;8.27;4.50;;;25.30;1.00;;;;;;5096407;28;20196;-74
2023/08/24 09:22:25;;;;;;;5.85;3.92;;;25.30;96.80;;;;;;5095558;28;20201;-74
2023/08/24 09:24:51;;;;;;;8.35;3.90;;;25.40;16.60;;;;;;5097944;28;20180;-78
2023/08/24 09:27:23;;;;;;;4.63;3.58;;;25.50;99.90;;;;;;5099017;28;20189;-78
2023/08/24 09:29:53;;;;;;;7.00;3.90;;;25.60;1.00;;;;;;5099976;28;20649;-79
2023/08/24 09:32:27;;;;;;;7.13;3.92;;;25.70;1.00;;;;;;5103535;28;20194;-79
2023/08/24 09:34:53;;;;;;;7.75;3.97;;;25.90;1.00;;;;;;5100946;28;20184;-78
2023/08/24 09:37:19;;;;;;;7.30;3.92;;;26.00;99.90;;;;;;5099564;28;20176;-78
2023/08/24 09:39:46;;;;;;;6.30;3.83;;;26.00;99.90;;;;;;5096563;28;20673;-77
2023/08/24 09:42:13;;;;;;;7.47;3.60;;;26.00;1.00;;;;;;5097794;28;20242;-78
2023/08/24 09:44:45;;;;;;;6.15;3.58;;;26.20;1.00;;;;;;5094661;28;20181;-75
2023/08/24 09:47:12;;;;;;;6.20;3.63;;;26.20;99.90;;;;;;5094867;28;20256;-76
2023/08/24 09:49:38;;;;;;;8.30;3.75;;;26.40;1.00;;;;;;5095618;28;20277;-76
2023/08/24 09:52:08;;;;;;;7.82;3.83;;;26.60;1.00;;;;;;5095340;28;20197;-76
2023/08/24 09:54:37;;;;;;;7.25;3.95;;;26.60;99.90;;;;;;5096700;28;20191;-76
2023/08/24 09:57:06;;;;;;;5.85;3.53;;;26.80;1.00;;;;;;5094183;28;20230;-76
2023/08/24 09:59:34;;;;;;;8.60;3.63;;;26.70;1.00;;;;;;5095391;28;20235;-76
2023/08/24 10:02:01;;;;;;;4.75;3.45;;;26.80;99.90;;;;;;5094047;28;20545;-76
2023/08/24 10:04:35;;;;;;;6.03;3.83;;;26.90;1.00;;;;;;5094590;28;20207;-76
2023/08/24 10:07:11;;;;;;;4.57;3.38;;;27.00;62.30;;;;;;5094511;28;20280;-76
2023/08/24 10:10:06;;;;;;;6.15;3.80;;;27.10;1.00;;;;;;5093700;28;20180;-76
2023/08/24 10:12:41;;;;;;;7.40;3.88;;;27.10;1.00;;;;;;5089789;28;20293;-76
2023/08/24 10:15:10;;;;;;;7.30;3.88;;;26.90;1.00;;;;;;5095426;28;20193;-76
2023/08/24 10:17:37;;;;;;;7.63;3.63;;;26.90;1.00;;;;;;5095264;28;20192;-77
2023/08/24 10:20:05;;;;;;;6.93;3.88;;;26.90;1.00;;;;;;5093910;28;20251;-77
2023/08/24 10:22:33;;;;;;;8.48;3.72;;;26.90;99.90;;;;;;5093864;28;20197;-77
2023/08/24 10:24:59;;;;;;;9.15;4.03;;;26.90;99.90;;;;;;5094033;28;20183;-77
2023/08/24 10:27:27;;;;;;;7.35;3.83;;;27.00;99.90;;;;;;5094509;28;20173;-76
2023/08/24 10:29:53;;;;;;;10.40;3.85;;;27.00;55.70;;;;;;5096085;28;20687;-77
2023/08/24 10:32:21;;;;;;;5.03;3.55;;;27.20;26.30;;;;;;5095495;28;20188;-77
2023/08/24 10:34:47;;;;;;;5.22;3.50;;;27.00;1.00;;;;;;5093909;28;20177;-77
2023/08/24 10:37:13;;;;;;;6.65;4.05;;;27.00;1.00;;;;;;5095400;28;20184;-77
2023/08/24 10:39:48;;;;;;;5.97;3.65;;;27.10;1.00;;;;;;5093990;28;20262;-77
2023/08/24 10:42:14;;;;;;;4.90;3.53;;;27.10;1.00;;;;;;5095436;28;20208;-77
2023/08/24 10:44:43;;;;;;;5.72;3.45;;;27.10;1.00;;;;;;5094094;28;20197;-77
2023/08/24 10:47:18;;;;;;;5.75;3.60;;;27.10;1.00;;;;;;5095155;28;20177;-77
2023/08/24 10:49:57;;;;;;;5.63;3.78;;;27.30;99.90;;;;;;5095586;28;20254;-77
2023/08/24 10:52:30;;;;;;;5.78;3.75;;;27.30;1.00;;;;;;5094065;28;20193;-77
2023/08/24 10:54:56;;;;;;;8.82;3.40;;;27.30;1.00;;;;;;5094542;28;20188;-76
2023/08/24 10:57:36;;;;;;;5.53;3.45;;;27.30;1.00;;;;;;5093724;28;20188;-77
2023/08/24 11:00:10;;;;;;;5.50;3.45;;;27.40;1.00;;;;;;5093791;28;20284;-77
2023/08/24 11:02:49;;;;;;;4.60;3.00;;;27.40;99.90;;;;;;5094823;28;20181;-77
2023/08/24 11:05:18;;;;;;;6.32;3.35;;;27.60;1.00;;;;;;5093975;28;20208;-77
2023/08/24 11:07:59;;;;;;;4.97;3.50;;;27.60;99.90;;;;;;5095113;28;20170;-77
2023/08/24 11:10:30;;;;;;;6.40;3.28;;;27.70;1.00;;;;;;5094673;28;20153;-77
2023/08/24 11:13:22;;;;;;;3.92;3.00;;;27.60;1.00;;;;;;5094748;28;20632;-77
2023/08/24 11:15:57;;;;;;;7.70;3.55;;;27.60;1.00;;;;;;5094714;28;20739;-77
2023/08/24 11:18:28;;;;;;;6.22;3.63;;;27.70;1.00;;;;;;5093741;28;20354;-77
2023/08/24 11:21:05;;;;;;;4.65;3.22;;;27.80;1.00;;;;;;5092473;28;20208;-76
2023/08/24 11:23:32;;;;;;;3.65;3.08;;;27.90;1.00;;;;;;5092642;28;20225;-76
2023/08/24 11:25:59;;;;;;;4.25;3.20;;;28.00;1.00;;;;;;5094224;28;20184;-76
2023/08/24 11:28:29;;;;;;;6.45;3.00;;;28.10;1.00;;;;;;5092778;28;20645;-76
2023/08/24 11:30:56;;;;;;;6.05;3.58;;;28.30;1.00;;;;;;5093847;28;20196;-75
2023/08/24 11:33:35;;;;;;;5.15;3.30;;;28.40;1.00;;;;;;5092631;28;20225;-75
2023/08/24 11:36:03;;;;;;;5.20;3.45;;;28.10;1.00;;;;;;5093660;28;20168;-75
2023/08/24 11:38:40;;;;;;;5.32;3.35;;;28.00;1.00;;;;;;5092482;28;20673;-75
2023/08/24 11:41:12;;;;;;;5.10;2.85;;;27.90;99.90;;;;;;5092436;28;20197;-75
2023/08/24 11:43:37;;;;;;;8.32;3.55;;;27.90;99.90;;;;;;5093699;28;20150;-75
2023/08/24 11:46:03;;;;;;;5.10;3.40;;;27.80;1.00;;;;;;5092442;28;20176;-75
2023/08/24 11:48:30;;;;;;;4.00;3.00;;;27.80;99.90;;;;;;5093653;28;20211;-75
2023/08/24 11:50:57;;;;;;;5.15;2.63;;;27.90;1.00;;;;;;5092304;28;20200;-75
2023/08/24 11:53:24;;;;;;;4.85;2.70;;;28.10;99.90;;;;;;5093705;28;20177;-75
2023/08/24 11:55:53;;;;;;;7.43;3.60;;;28.10;99.90;;;;;;5092332;28;20185;-75
2023/08/24 11:58:20;;;;;;;5.20;3.13;;;28.10;1.00;;;;;;5094401;28;20213;-75
2023/08/24 12:00:46;;;;;;;6.88;3.33;;;28.10;99.90;;;;;;5094066;28;20200;-75
2023/08/24 12:03:13;;;;;;;5.28;3.05;;;28.00;1.00;;;;;;5092437;28;20173;-75
2023/08/24 12:05:39;;;;;;;5.07;2.97;;;27.90;1.00;;;;;;5092059;28;20182;-75
2023/08/24 12:08:05;;;;;;;4.45;3.00;;;27.80;1.00;;;;;;5093521;28;20724;-75
2023/08/24 12:10:31;;;;;;;7.93;3.22;;;27.70;1.00;;;;;;5093344;28;20201;-75
2023/08/24 12:13:07;;;;;;;5.03;3.47;;;27.60;1.00;;;;;;5093995;28;20179;-75
2023/08/24 12:15:37;;;;;;;7.00;3.40;;;27.50;99.90;;;;;;5093776;28;20175;-75
2023/08/24 12:18:11;;;;;;;6.47;3.55;;;27.50;1.00;;;;;;5093697;28;20230;-75
2023/08/24 12:20:37;;;;;;;6.57;3.55;;;27.50;1.00;;;;;;5093511;28;20280;-75
2023/08/24 12:23:03;;;;;;;6.00;3.17;;;27.50;1.00;;;;;;5091998;28;20176;-75
2023/08/24 12:25:29;;;;;;;6.82;3.25;;;27.60;99.90;;;;;;5093461;28;20177;-75
2023/08/24 12:28:14;;;;;;;4.80;3.30;;;27.60;49.70;;;;;;5093370;28;20235;-74
2023/08/24 12:30:48;;;;;;;5.07;2.90;;;27.50;99.90;;;;;;5092324;28;20196;-74
2023/08/24 12:33:25;;;;;;;5.10;2.78;;;27.50;99.90;;;;;;5093824;28;20231;-74
2023/08/24 12:35:52;;;;;;;6.53;3.42;;;27.60;1.00;;;;;;5097211;28;20165;-75
2023/08/24 12:38:18;;;;;;;9.20;3.35;;;27.60;1.00;;;;;;5095815;28;20197;-75
2023/08/24 12:40:44;;;;;;;6.38;3.33;;;27.50;1.00;;;;;;5096810;28;20535;-74